»·PEaware :: QXE2587 KSEA-KEUG

QXE2587 :: KSEA-KEUG

FLIGHT INFORMATION

Flight Status: Arrived
Operator:
Horizon Air
More flights by this operator :: More flights under this callsign
Pilot: Henderson P. (1210)
Aircraft: DEHAVILLAND DASH 8 400
(DH8D)
More flights by this aircraft type
Origin: KSEA Seattle-Tacoma Intl
United States
Destination: KEUG Mahlon Sweet
United States
More flights between these airports :: More routes between these airports
Route: +SEA7 SEA J1 BTG V23 EUG
File this flight plan on PilotEdge
Remarks:
Altitude:
(Current/Filed)
21,000ft
Speed:
(Current/Filed)
316kts
Departed: 23-Oct-18 01:37 PM
Arrived: 23-Oct-18 02:24 PM
Distance/Time
Traveled:
203nm/0:47
Distance/Time
To Go:
Arrived

Flight Plot

Page will automatically refresh every two minutes.

Flight plan parsing failed; only flown route is shown


Map Options




Map Legend


Flown Route
Filed Route
Departure Airport
Arrival Airport
Navaid (VOR, NDB)
Fix

Horizontal Profiles

Position Reports

Time Latitude Longitude Heading Altitude Ground
Speed
23-Oct-18 12:23 47.446317 -122.304756 91 440ft 0kts
23-Oct-18 12:24 47.446317 -122.304756 91 440ft 0kts
23-Oct-18 12:25 47.446317 -122.304756 91 440ft 0kts
23-Oct-18 12:26 47.446317 -122.304756 91 440ft 0kts
23-Oct-18 12:27 47.446317 -122.304756 91 440ft 0kts
23-Oct-18 12:28 47.446317 -122.304756 91 440ft 0kts
23-Oct-18 12:29 47.446317 -122.304756 91 440ft 0kts
23-Oct-18 12:30 47.446317 -122.304756 91 440ft 0kts
23-Oct-18 12:31 47.446317 -122.304756 91 440ft 0kts
23-Oct-18 12:32 47.446317 -122.304756 91 440ft 0kts
23-Oct-18 12:33 47.446317 -122.304756 91 440ft 0kts
23-Oct-18 12:34 47.446317 -122.304756 91 440ft 0kts
23-Oct-18 12:35 47.446317 -122.304756 91 440ft 0kts
23-Oct-18 12:36 47.446317 -122.304756 91 440ft 0kts
23-Oct-18 12:37 47.446317 -122.304756 91 440ft 0kts
23-Oct-18 12:38 47.446317 -122.304756 91 440ft 0kts
23-Oct-18 12:39 47.446317 -122.304756 91 440ft 0kts
23-Oct-18 12:40 47.446317 -122.304756 91 440ft 0kts
23-Oct-18 12:41 47.446317 -122.304756 91 440ft 0kts
23-Oct-18 12:42 47.446317 -122.304756 91 440ft 0kts
23-Oct-18 12:43 47.446317 -122.304756 91 440ft 0kts
23-Oct-18 12:44 47.446317 -122.304756 91 440ft 0kts
23-Oct-18 12:45 47.446317 -122.304756 91 440ft 0kts
23-Oct-18 12:46 47.446317 -122.304756 91 440ft 0kts
23-Oct-18 12:47 47.446317 -122.304756 91 440ft 0kts
23-Oct-18 12:48 47.446317 -122.304756 91 440ft 0kts
23-Oct-18 12:49 47.446317 -122.304756 91 440ft 0kts
23-Oct-18 12:50 47.446317 -122.304756 91 440ft 0kts
23-Oct-18 12:51 47.446317 -122.304756 91 440ft 0kts
23-Oct-18 12:52 47.446317 -122.304756 91 440ft 0kts
23-Oct-18 12:53 47.446317 -122.304756 91 440ft 0kts
23-Oct-18 12:54 47.446317 -122.304756 91 440ft 0kts
23-Oct-18 12:55 47.446317 -122.304756 91 440ft 0kts
23-Oct-18 12:56 47.446317 -122.304756 91 440ft 0kts
23-Oct-18 12:57 47.446317 -122.304756 91 440ft 0kts
23-Oct-18 12:58 47.446317 -122.304756 91 440ft 0kts
23-Oct-18 12:59 47.446317 -122.304756 91 440ft 0kts
23-Oct-18 13:00 47.446317 -122.304756 91 440ft 0kts
23-Oct-18 13:01 47.446317 -122.304756 91 440ft 0kts
23-Oct-18 13:02 47.446317 -122.304756 91 440ft 0kts
23-Oct-18 13:03 47.446317 -122.304756 91 440ft 0kts
23-Oct-18 13:04 47.446317 -122.304756 91 440ft 0kts
23-Oct-18 13:05 47.446317 -122.304756 91 440ft 0kts
23-Oct-18 13:06 47.446317 -122.304756 91 440ft 0kts
23-Oct-18 13:07 47.446317 -122.304756 91 440ft 0kts
23-Oct-18 13:08 47.446317 -122.304756 91 440ft 0kts
23-Oct-18 13:09 47.446317 -122.304756 91 440ft 0kts
23-Oct-18 13:10 47.446317 -122.304756 91 440ft 0kts
23-Oct-18 13:11 47.446317 -122.304756 91 440ft 0kts
23-Oct-18 13:12 47.446317 -122.304756 91 440ft 0kts
23-Oct-18 13:13 47.446317 -122.304756 91 440ft 0kts
23-Oct-18 13:14 47.446317 -122.304756 91 440ft 0kts
23-Oct-18 13:15 47.446317 -122.304756 91 440ft 0kts
23-Oct-18 13:16 47.446317 -122.304756 91 440ft 0kts
23-Oct-18 13:17 47.446317 -122.304756 91 440ft 0kts
23-Oct-18 13:18 47.446317 -122.304756 91 440ft 0kts
23-Oct-18 13:19 47.446317 -122.304756 91 440ft 0kts
23-Oct-18 13:20 47.446317 -122.304756 91 440ft 0kts
23-Oct-18 13:21 47.446317 -122.304756 91 440ft 0kts
23-Oct-18 13:22 47.446317 -122.304756 91 440ft 0kts
23-Oct-18 13:23 47.446317 -122.304756 91 440ft 0kts
23-Oct-18 13:24 47.446317 -122.304756 91 440ft 0kts
23-Oct-18 13:25 47.446133 -122.305400 12 440ft 2kts
23-Oct-18 13:26 47.445966 -122.305416 0 440ft 0kts
23-Oct-18 13:27 47.445966 -122.305416 0 440ft 0kts
23-Oct-18 13:28 47.445966 -122.305416 0 440ft 0kts
23-Oct-18 13:29 47.446157 -122.305478 336 440ft 5kts
23-Oct-18 13:30 47.449381 -122.306274 0 440ft 17kts
23-Oct-18 13:31 47.454953 -122.306224 0 440ft 20kts
23-Oct-18 13:32 47.459429 -122.306188 0 440ft 14kts
23-Oct-18 13:33 47.463233 -122.306149 0 440ft 13kts
23-Oct-18 13:34 47.463674 -122.309518 270 440ft 0kts
23-Oct-18 13:35 47.463674 -122.309566 270 440ft 0kts
23-Oct-18 13:36 47.463674 -122.309566 270 440ft 0kts
23-Oct-18 13:37 47.463674 -122.309566 270 440ft 0kts
23-Oct-18 13:38 47.462989 -122.311028 178 440ft 18kts
23-Oct-18 13:39 47.431379 -122.310931 173 1791ft 137kts
23-Oct-18 13:40 47.388322 -122.305317 179 3962ft 183kts
23-Oct-18 13:41 47.332205 -122.318340 187 6021ft 225kts
23-Oct-18 13:42 47.270405 -122.329369 188 8521ft 231kts
23-Oct-18 13:43 47.207314 -122.341535 188 10631ft 235kts
23-Oct-18 13:44 47.142122 -122.354670 186 12034ft 240kts
23-Oct-18 13:45 47.075899 -122.367186 186 13434ft 244kts
23-Oct-18 13:46 47.008410 -122.379559 186 14684ft 249kts
23-Oct-18 13:47 46.939641 -122.392214 186 15821ft 253kts
23-Oct-18 13:48 46.870256 -122.405025 187 16853ft 256kts
23-Oct-18 13:49 46.798714 -122.418226 187 17862ft 258kts
23-Oct-18 13:50 46.727775 -122.430134 187 18859ft 257kts
23-Oct-18 13:51 46.657326 -122.441961 186 19855ft 254kts
23-Oct-18 13:52 46.587719 -122.453547 187 20835ft 251kts
23-Oct-18 13:53 46.514586 -122.465778 187 21021ft 276kts
23-Oct-18 13:54 46.434830 -122.479064 187 21032ft 299kts
23-Oct-18 13:55 46.349458 -122.493170 187 21033ft 312kts
23-Oct-18 13:56 46.262133 -122.507614 187 21036ft 317kts
23-Oct-18 13:57 46.175540 -122.521799 187 21045ft 319kts
23-Oct-18 13:58 46.087301 -122.536345 187 21042ft 321kts
23-Oct-18 13:59 45.999955 -122.550573 187 21046ft 320kts
23-Oct-18 14:00 45.913314 -122.564515 187 21051ft 321kts
23-Oct-18 14:01 45.828228 -122.578479 187 21048ft 322kts
23-Oct-18 14:02 45.740466 -122.593971 192 21050ft 322kts
23-Oct-18 14:03 45.657187 -122.627576 196 21055ft 322kts
23-Oct-18 14:04 45.572301 -122.661497 196 21054ft 323kts
23-Oct-18 14:05 45.487258 -122.695104 196 21055ft 324kts
23-Oct-18 14:06 45.400698 -122.729323 196 21057ft 324kts
23-Oct-18 14:07 45.315048 -122.763085 196 21060ft 324kts
23-Oct-18 14:08 45.229067 -122.796830 196 21064ft 323kts
23-Oct-18 14:09 45.145495 -122.829542 196 21071ft 322kts
23-Oct-18 14:10 45.059828 -122.862940 196 21067ft 322kts
23-Oct-18 14:11 44.974685 -122.896101 196 20514ft 332kts
23-Oct-18 14:12 44.885933 -122.932094 199 18665ft 335kts
23-Oct-18 14:13 44.799801 -122.969236 195 16778ft 334kts
23-Oct-18 14:14 44.713149 -122.998450 195 14910ft 316kts
23-Oct-18 14:15 44.631398 -123.028249 196 13180ft 299kts
23-Oct-18 14:16 44.555015 -123.057919 196 11563ft 282kts
23-Oct-18 14:17 44.483019 -123.085354 197 10010ft 265kts
23-Oct-18 14:18 44.415723 -123.111053 197 8263ft 248kts
23-Oct-18 14:19 44.353300 -123.134896 197 6490ft 229kts
23-Oct-18 14:20 44.298742 -123.165933 224 4789ft 214kts
23-Oct-18 14:21 44.260254 -123.205635 196 3832ft 145kts
23-Oct-18 14:22 44.228354 -123.215598 190 2241ft 113kts
23-Oct-18 14:23 44.195974 -123.219720 182 1552ft 121kts
23-Oct-18 14:24 44.163234 -123.219749 179 935ft 120kts
23-Oct-18 14:25 44.130466 -123.219095 179 378ft 111kts
23-Oct-18 14:26 44.120371 -123.218064 131 377ft 6kts
23-Oct-18 14:27 44.119377 -123.216404 129 376ft 0kts
23-Oct-18 14:28 44.118478 -123.215126 138 377ft 11kts
23-Oct-18 14:29 44.118737 -123.213486 36 376ft 0kts
23-Oct-18 14:30 44.118737 -123.213486 36 376ft 0kts
23-Oct-18 14:31 44.118737 -123.213486 36 376ft 0kts

Navigation Log

Ident Type
Flight plan parsing failed, navigation log unavailable